createdAt,value
2022-12-04T00:00:27.865Z,18.80
2022-12-04T00:02:54.755Z,15.63
2022-12-04T00:05:21.627Z,16.83
2022-12-04T00:07:49.617Z,16.50
2022-12-04T00:10:16.461Z,15.73
2022-12-04T00:12:43.226Z,18.83
2022-12-04T00:15:26.635Z,16.10
2022-12-04T00:17:53.798Z,16.43
2022-12-04T00:20:21.688Z,16.27
2022-12-04T00:22:49.431Z,15.53
2022-12-04T00:25:16.673Z,16.97
2022-12-04T00:27:43.444Z,18.77
2022-12-04T00:30:10.770Z,17.57
2022-12-04T00:32:37.561Z,17.23
2022-12-04T00:35:04.601Z,17.47
2022-12-04T00:37:33.430Z,17.73
2022-12-04T00:40:00.565Z,16.73
2022-12-04T00:42:27.264Z,18.97
2022-12-04T00:44:54.065Z,18.43
2022-12-04T00:47:21.038Z,18.37
2022-12-04T00:49:47.780Z,17.33
2022-12-04T00:52:14.452Z,15.37
2022-12-04T00:54:41.178Z,15.13
2022-12-04T00:57:07.885Z,17.07
2022-12-04T00:59:35.527Z,15.47
2022-12-04T01:02:02.189Z,16.00
2022-12-04T01:04:28.925Z,17.97
2022-12-04T01:06:58.056Z,18.33
2022-12-04T01:09:28.408Z,17.30
2022-12-04T01:11:55.416Z,16.97
2022-12-04T01:14:22.170Z,18.53
2022-12-04T01:16:49.915Z,16.50
2022-12-04T01:19:17.050Z,15.37
2022-12-04T01:21:43.765Z,17.27
2022-12-04T01:24:10.741Z,15.87
2022-12-04T01:26:37.733Z,15.57
2022-12-04T01:29:05.047Z,15.57
2022-12-04T01:31:32.253Z,16.93
2022-12-04T01:33:58.992Z,13.93
2022-12-04T01:36:28.279Z,17.40
2022-12-04T01:38:55.922Z,17.13
2022-12-04T01:41:28.661Z,16.47
2022-12-04T01:44:17.026Z,17.10
2022-12-04T01:46:46.748Z,17.67
2022-12-04T01:49:23.829Z,14.67
2022-12-04T01:52:03.525Z,14.93
2022-12-04T01:54:37.403Z,15.07
2022-12-04T01:57:30.049Z,15.13
2022-12-04T02:00:05.721Z,13.43
2022-12-04T02:02:35.731Z,17.83
2022-12-04T02:05:05.617Z,16.70
2022-12-04T02:07:33.233Z,16.57
2022-12-04T02:10:03.970Z,16.17
2022-12-04T02:12:39.679Z,16.73
2022-12-04T02:15:12.420Z,16.07
2022-12-04T02:17:55.719Z,16.07
2022-12-04T02:20:41.297Z,15.90
2022-12-04T02:23:26.754Z,16.17
2022-12-04T02:26:21.659Z,17.30
2022-12-04T02:28:51.836Z,16.67
2022-12-04T02:31:27.449Z,17.33
2022-12-04T02:34:18.353Z,16.37
2022-12-04T02:36:52.632Z,17.20
2022-12-04T02:39:28.269Z,16.67
2022-12-04T02:42:01.579Z,17.70
2022-12-04T02:44:51.696Z,14.27
2022-12-04T02:47:22.350Z,16.17
2022-12-04T02:50:15.035Z,16.30
2022-12-04T02:52:47.584Z,16.40
2022-12-04T02:55:33.596Z,16.83
2022-12-04T02:58:07.049Z,16.90
2022-12-04T03:00:36.094Z,16.77
2022-12-04T03:03:11.148Z,17.40
2022-12-04T03:05:58.137Z,15.43
2022-12-04T03:08:36.382Z,15.23
2022-12-04T03:11:03.566Z,15.50
2022-12-04T03:13:46.017Z,17.73
2022-12-04T03:16:36.493Z,16.63
2022-12-04T03:19:10.242Z,15.37
2022-12-04T03:21:41.339Z,16.97
2022-12-04T03:24:27.170Z,16.63
2022-12-04T03:27:10.317Z,16.23
2022-12-04T03:29:55.351Z,17.20
2022-12-04T03:32:26.694Z,15.30
2022-12-04T03:34:59.697Z,15.67
2022-12-04T03:37:42.865Z,16.80
2022-12-04T03:40:12.569Z,16.77
2022-12-04T03:43:06.456Z,15.60
2022-12-04T03:45:46.191Z,15.20
2022-12-04T03:48:26.598Z,15.87
2022-12-04T03:51:04.894Z,16.37
2022-12-04T03:53:40.968Z,16.30
2022-12-04T03:56:19.184Z,16.30
2022-12-04T03:59:04.925Z,15.63
2022-12-04T04:01:38.368Z,14.43
2022-12-04T04:04:10.757Z,17.10
2022-12-04T04:06:41.054Z,16.53
2022-12-04T04:09:18.913Z,17.93
2022-12-04T04:12:09.545Z,14.63
2022-12-04T04:15:00.241Z,16.70
2022-12-04T04:17:50.706Z,15.80
2022-12-04T04:20:48.987Z,15.07
2022-12-04T04:23:37.012Z,16.20
2022-12-04T04:26:04.474Z,15.57
2022-12-04T04:28:34.720Z,15.07
2022-12-04T04:31:15.900Z,16.60
2022-12-04T04:34:13.547Z,15.93
2022-12-04T04:36:51.643Z,15.70
2022-12-04T04:39:41.371Z,14.53
2022-12-04T04:42:33.385Z,15.27
2022-12-04T04:45:09.040Z,15.23
2022-12-04T04:47:38.513Z,16.47
2022-12-04T04:50:09.301Z,15.70
2022-12-04T04:52:39.771Z,16.23
2022-12-04T04:55:08.267Z,15.03
2022-12-04T04:57:37.253Z,17.37
2022-12-04T05:00:11.239Z,15.57
2022-12-04T05:02:38.744Z,16.50
2022-12-04T05:05:07.161Z,16.10
2022-12-04T05:07:33.911Z,15.50
2022-12-04T05:10:00.662Z,17.23
2022-12-04T05:12:27.801Z,16.10
2022-12-04T05:14:54.471Z,16.70
2022-12-04T05:17:22.066Z,15.73
2022-12-04T05:19:57.243Z,15.90
2022-12-04T05:22:31.730Z,15.50
2022-12-04T05:24:59.741Z,15.93
2022-12-04T05:27:28.910Z,14.83
2022-12-04T05:29:58.077Z,14.57
2022-12-04T05:32:26.808Z,14.93
2022-12-04T05:34:55.618Z,14.90
2022-12-04T05:37:23.657Z,14.60
2022-12-04T05:39:50.358Z,15.37
2022-12-04T05:42:17.186Z,15.53
2022-12-04T05:44:44.240Z,14.40
2022-12-04T05:47:11.812Z,14.50
2022-12-04T05:49:39.175Z,14.87
2022-12-04T05:52:06.189Z,14.77
2022-12-04T05:54:32.908Z,15.10
2022-12-04T05:56:59.711Z,14.13
2022-12-04T05:59:26.909Z,14.57
2022-12-04T06:01:54.369Z,15.03
2022-12-04T06:04:21.143Z,15.30
2022-12-04T06:06:47.905Z,15.43
2022-12-04T06:09:14.783Z,15.30
2022-12-04T06:11:42.864Z,15.00
2022-12-04T06:14:13.126Z,14.70
2022-12-04T06:16:45.656Z,14.27
2022-12-04T06:19:18.904Z,15.73
2022-12-04T06:21:48.230Z,16.53
2022-12-04T06:24:18.048Z,17.53
2022-12-04T06:27:11.254Z,15.73
2022-12-04T06:29:32.929Z,14.67
2022-12-04T06:31:59.704Z,15.13
2022-12-04T06:34:26.993Z,13.77
2022-12-04T06:36:54.272Z,13.53
2022-12-04T06:39:21.297Z,14.07
2022-12-04T06:41:48.184Z,13.80
2022-12-04T06:44:16.078Z,14.67
2022-12-04T06:46:46.702Z,14.20
2022-12-04T06:49:14.156Z,13.83
2022-12-04T06:51:41.083Z,14.27
2022-12-04T06:54:08.660Z,13.93
2022-12-04T06:56:35.657Z,14.57
2022-12-04T06:59:04.305Z,14.87
2022-12-04T07:01:33.502Z,14.13
2022-12-04T07:04:03.787Z,14.33
2022-12-04T07:06:36.200Z,15.00
2022-12-04T07:09:10.633Z,14.20
2022-12-04T07:11:39.523Z,14.77
2022-12-04T07:14:06.284Z,14.07
2022-12-04T07:16:38.634Z,14.63
2022-12-04T07:19:08.530Z,15.67
2022-12-04T07:21:35.311Z,13.30
2022-12-04T07:24:02.260Z,14.20
2022-12-04T07:26:30.567Z,15.30
2022-12-04T07:28:58.857Z,36.13
2022-12-04T07:31:27.734Z,18.27
2022-12-04T07:33:55.646Z,13.23
2022-12-04T07:36:25.070Z,15.07
2022-12-04T07:38:52.279Z,14.93
2022-12-04T07:41:19.850Z,23.20
2022-12-04T07:43:47.332Z,17.97
2022-12-04T07:46:17.350Z,13.23
2022-12-04T07:48:44.451Z,15.70
2022-12-04T07:51:12.849Z,12.53
2022-12-04T07:53:40.487Z,15.40
2022-12-04T07:56:08.931Z,14.63
2022-12-04T07:58:35.773Z,15.10
2022-12-04T08:01:22.998Z,15.33
2022-12-04T08:03:53.706Z,14.90
2022-12-04T08:06:23.951Z,15.77
2022-12-04T08:08:51.928Z,13.60
2022-12-04T08:11:22.434Z,13.87
2022-12-04T08:13:55.206Z,14.57
2022-12-04T08:16:21.987Z,14.93
2022-12-04T08:18:48.938Z,14.67
2022-12-04T08:21:21.524Z,14.43
2022-12-04T08:23:50.140Z,14.53
2022-12-04T08:26:17.345Z,13.83
2022-12-04T08:28:44.541Z,14.10
2022-12-04T08:31:14.692Z,13.63
2022-12-04T08:33:43.216Z,15.00
2022-12-04T08:36:13.587Z,15.57
2022-12-04T08:38:40.702Z,13.93
2022-12-04T08:41:11.432Z,13.70
2022-12-04T08:43:39.158Z,13.20
2022-12-04T08:46:09.226Z,13.83
2022-12-04T08:48:36.425Z,14.53
2022-12-04T08:51:04.489Z,15.47
2022-12-04T08:53:32.444Z,14.30
2022-12-04T08:56:01.451Z,14.40
2022-12-04T08:58:28.783Z,14.07
2022-12-04T09:00:55.857Z,14.00
2022-12-04T09:03:29.191Z,13.87
2022-12-04T09:06:01.855Z,13.43
2022-12-04T09:08:28.916Z,14.30
2022-12-04T09:11:02.124Z,14.33
2022-12-04T09:13:28.891Z,14.80
2022-12-04T09:15:56.033Z,14.60
2022-12-04T09:18:22.816Z,14.37
2022-12-04T09:20:57.765Z,13.77
2022-12-04T09:23:25.828Z,14.13
2022-12-04T09:25:52.684Z,14.40
2022-12-04T09:28:20.536Z,13.03
2022-12-04T09:30:57.473Z,14.90
2022-12-04T09:33:24.801Z,13.20
2022-12-04T09:35:51.668Z,12.80
2022-12-04T09:38:18.437Z,13.27
2022-12-04T09:41:16.994Z,14.17
2022-12-04T09:44:01.033Z,13.77
2022-12-04T09:46:51.384Z,13.47
2022-12-04T09:49:21.426Z,14.27
2022-12-04T09:51:50.054Z,13.80
2022-12-04T09:54:21.075Z,14.37
2022-12-04T09:56:55.001Z,12.87
2022-12-04T09:59:26.042Z,13.33
2022-12-04T10:02:22.291Z,13.80
2022-12-04T10:04:49.773Z,12.97
2022-12-04T10:07:24.852Z,13.83
2022-12-04T10:09:58.729Z,14.13
2022-12-04T10:12:26.397Z,13.43
2022-12-04T10:15:11.646Z,13.67
2022-12-04T10:17:50.919Z,13.10
2022-12-04T10:20:35.297Z,12.80
2022-12-04T10:23:21.933Z,13.30
2022-12-04T10:25:51.990Z,13.60
2022-12-04T10:28:27.942Z,13.93
2022-12-04T10:31:00.041Z,14.33
2022-12-04T10:33:51.037Z,13.50
2022-12-04T10:36:20.961Z,11.20
2022-12-04T10:38:52.612Z,12.63
2022-12-04T10:41:28.299Z,13.57
2022-12-04T10:43:55.464Z,12.53
2022-12-04T10:46:25.927Z,12.47
2022-12-04T10:48:58.032Z,11.80
2022-12-04T10:51:25.467Z,11.73
2022-12-04T10:53:52.241Z,12.27
2022-12-04T10:56:25.505Z,12.47
2022-12-04T10:59:01.024Z,12.47
2022-12-04T11:01:33.107Z,12.03
2022-12-04T11:04:07.877Z,13.33
2022-12-04T11:06:35.431Z,13.13
2022-12-04T11:09:03.872Z,12.17
2022-12-04T11:11:33.134Z,13.57
2022-12-04T11:14:14.820Z,13.80
2022-12-04T11:16:46.396Z,13.30
2022-12-04T11:19:22.198Z,12.60
2022-12-04T11:21:50.364Z,12.70
2022-12-04T11:24:37.961Z,12.03
2022-12-04T11:27:06.364Z,11.90
2022-12-04T11:29:47.759Z,11.97
2022-12-04T11:32:24.369Z,12.40
2022-12-04T11:34:55.982Z,12.53
2022-12-04T11:37:30.478Z,15.30
2022-12-04T11:39:57.853Z,15.30
2022-12-04T11:42:30.107Z,14.67
2022-12-04T11:45:01.517Z,12.37
2022-12-04T11:47:31.261Z,10.20
2022-12-04T11:50:11.881Z,12.37
2022-12-04T11:52:52.209Z,11.80
2022-12-04T11:55:33.433Z,10.33
2022-12-04T11:58:02.968Z,13.20
2022-12-04T12:00:32.974Z,10.77
2022-12-04T12:03:18.831Z,11.97
2022-12-04T12:05:54.661Z,12.00
2022-12-04T12:09:02.263Z,13.67
2022-12-04T12:11:42.533Z,11.60
2022-12-04T12:14:48.797Z,11.50
2022-12-04T12:17:27.404Z,11.17
2022-12-04T12:20:09.337Z,11.43
2022-12-04T12:23:11.296Z,10.63
2022-12-04T12:26:15.445Z,10.30
2022-12-04T12:29:05.154Z,10.87
2022-12-04T12:32:15.302Z,10.73
2022-12-04T12:34:46.200Z,10.07
2022-12-04T12:37:27.996Z,10.30
2022-12-04T12:40:15.085Z,9.80
2022-12-04T12:42:58.775Z,9.17
2022-12-04T12:45:52.798Z,9.70
2022-12-04T12:48:43.164Z,14.60
2022-12-04T12:51:30.049Z,11.50
2022-12-04T12:54:28.489Z,11.00
2022-12-04T12:57:04.552Z,10.90
2022-12-04T12:59:32.552Z,10.23
2022-12-04T13:02:14.656Z,11.07
2022-12-04T13:04:50.370Z,11.00
2022-12-04T13:07:17.175Z,11.30
2022-12-04T13:09:53.149Z,11.33
2022-12-04T13:12:22.798Z,11.53
2022-12-04T13:14:49.510Z,10.63
2022-12-04T13:17:21.055Z,10.10
2022-12-04T13:19:53.960Z,11.37
2022-12-04T13:22:29.971Z,13.10
2022-12-04T13:25:34.275Z,16.20
2022-12-04T13:28:04.141Z,12.53
2022-12-04T13:30:41.975Z,12.97
2022-12-04T13:33:29.131Z,12.03
2022-12-04T13:36:17.521Z,11.10
2022-12-04T13:39:02.494Z,11.27
2022-12-04T13:41:33.352Z,12.43
2022-12-04T13:44:05.655Z,10.73
2022-12-04T13:46:40.669Z,12.00
2022-12-04T13:49:32.434Z,11.20
2022-12-04T13:52:20.829Z,11.17
2022-12-04T13:55:00.489Z,11.37
2022-12-04T13:57:28.423Z,11.30
2022-12-04T14:00:23.673Z,11.37
2022-12-04T14:02:57.356Z,11.67
2022-12-04T14:05:40.333Z,10.93
2022-12-04T14:08:18.569Z,11.33
2022-12-04T14:10:57.398Z,11.43
2022-12-04T14:13:28.613Z,11.17
2022-12-04T14:16:08.330Z,11.60
2022-12-04T14:18:35.179Z,10.90
2022-12-04T14:21:05.068Z,11.33
2022-12-04T14:23:37.957Z,12.43
2022-12-04T14:26:05.488Z,10.80
2022-12-04T14:28:35.994Z,12.63
2022-12-04T14:31:24.048Z,12.13
2022-12-04T14:33:53.181Z,11.93
2022-12-04T14:36:34.252Z,11.40
2022-12-04T14:39:31.745Z,11.77
2022-12-04T14:42:23.568Z,11.50
2022-12-04T14:44:59.337Z,10.47
2022-12-04T14:47:44.388Z,10.43
2022-12-04T14:50:16.941Z,10.97
2022-12-04T14:52:54.541Z,12.23
2022-12-04T14:55:32.507Z,11.73
2022-12-04T14:58:21.488Z,10.97
2022-12-04T15:00:53.790Z,11.17
2022-12-04T15:03:21.592Z,11.10
2022-12-04T15:05:50.782Z,10.83
2022-12-04T15:08:20.298Z,10.60
2022-12-04T15:11:09.719Z,11.33
2022-12-04T15:13:38.862Z,9.63
2022-12-04T15:16:22.576Z,11.13
2022-12-04T15:18:59.453Z,10.63
2022-12-04T15:21:41.088Z,11.40
2022-12-04T15:24:19.579Z,11.60
2022-12-04T15:26:48.642Z,11.10
2022-12-04T15:29:25.588Z,10.60
2022-12-04T15:31:56.932Z,11.73
2022-12-04T15:34:39.992Z,13.30
2022-12-04T15:37:14.295Z,12.50
2022-12-04T15:39:41.273Z,11.70
2022-12-04T15:42:29.560Z,11.90
2022-12-04T15:45:02.737Z,11.37
2022-12-04T15:47:32.930Z,12.77
2022-12-04T15:50:14.497Z,11.33
2022-12-04T15:52:59.579Z,10.77
2022-12-04T15:55:29.544Z,10.93
2022-12-04T15:58:00.053Z,12.17
2022-12-04T16:00:34.320Z,11.73
2022-12-04T16:03:01.427Z,11.70
2022-12-04T16:05:37.569Z,12.53
2022-12-04T16:08:26.069Z,13.17
2022-12-04T16:11:08.670Z,10.97
2022-12-04T16:13:38.692Z,12.43
2022-12-04T16:16:11.576Z,12.97
2022-12-04T16:18:39.753Z,13.63
2022-12-04T16:21:14.536Z,14.07
2022-12-04T16:23:41.267Z,13.20
2022-12-04T16:26:16.224Z,13.43
2022-12-04T16:28:43.694Z,13.67
2022-12-04T16:31:14.852Z,13.97
2022-12-04T16:33:41.630Z,13.40
2022-12-04T16:36:11.324Z,15.03
2022-12-04T16:38:38.019Z,13.93
2022-12-04T16:41:05.859Z,15.00
2022-12-04T16:43:32.923Z,14.33
2022-12-04T16:46:01.402Z,16.23
2022-12-04T16:48:29.772Z,16.10
2022-12-04T16:50:56.583Z,16.00
2022-12-04T16:53:23.486Z,14.73
2022-12-04T16:55:51.759Z,16.07
2022-12-04T16:58:20.180Z,16.10
2022-12-04T17:00:54.018Z,16.33
2022-12-04T17:03:26.467Z,16.07
2022-12-04T17:05:54.098Z,15.47
2022-12-04T17:08:21.080Z,15.43
2022-12-04T17:10:48.541Z,15.80
2022-12-04T17:13:18.509Z,16.17
2022-12-04T17:15:45.880Z,17.57
2022-12-04T17:18:17.703Z,20.00
2022-12-04T17:20:47.400Z,17.17
2022-12-04T17:23:14.439Z,16.30
2022-12-04T17:25:41.156Z,15.57
2022-12-04T17:28:08.395Z,18.83
2022-12-04T17:30:36.369Z,19.13
2022-12-04T17:33:04.971Z,24.10
2022-12-04T17:35:31.775Z,21.03
2022-12-04T17:38:05.578Z,18.67
2022-12-04T17:40:32.639Z,16.20
2022-12-04T17:43:00.602Z,14.63
2022-12-04T17:45:29.588Z,15.07
2022-12-04T17:47:56.449Z,16.07
2022-12-04T17:50:23.385Z,15.87
2022-12-04T17:52:50.185Z,14.53
2022-12-04T17:55:18.546Z,15.40
2022-12-04T17:57:45.947Z,14.20
2022-12-04T18:00:12.947Z,14.77
2022-12-04T18:02:41.630Z,16.13
2022-12-04T18:05:09.568Z,14.77
2022-12-04T18:07:36.376Z,14.47
2022-12-04T18:10:04.032Z,14.30
2022-12-04T18:12:31.289Z,14.17
2022-12-04T18:14:57.967Z,14.40
2022-12-04T18:17:24.941Z,14.13
2022-12-04T18:19:51.640Z,14.53
2022-12-04T18:22:18.597Z,14.20
2022-12-04T18:24:46.205Z,13.33
2022-12-04T18:27:12.909Z,15.50
2022-12-04T18:29:40.089Z,13.30
2022-12-04T18:32:07.043Z,12.50
2022-12-04T18:34:34.142Z,12.53
2022-12-04T18:37:01.478Z,12.33
2022-12-04T18:39:28.216Z,12.83
2022-12-04T18:41:56.965Z,11.60
2022-12-04T18:44:24.231Z,11.97
2022-12-04T18:46:50.901Z,11.57
2022-12-04T18:49:17.840Z,12.43
2022-12-04T18:51:49.710Z,12.60
2022-12-04T18:54:23.075Z,10.77
2022-12-04T18:56:51.375Z,10.90
2022-12-04T18:59:25.265Z,10.57
2022-12-04T19:01:53.904Z,9.83
2022-12-04T19:04:23.358Z,11.20
2022-12-04T19:06:54.020Z,11.43
2022-12-04T19:09:40.982Z,11.03
2022-12-04T19:12:12.021Z,11.40
2022-12-04T19:14:40.043Z,9.90
2022-12-04T19:17:07.196Z,12.53
2022-12-04T19:19:34.547Z,14.13
2022-12-04T19:22:02.467Z,14.87
2022-12-04T19:24:29.193Z,11.43
2022-12-04T19:26:56.038Z,12.00
2022-12-04T19:29:22.821Z,11.07
2022-12-04T19:31:52.457Z,11.97
2022-12-04T19:34:22.829Z,10.73
2022-12-04T19:36:51.213Z,10.70
2022-12-04T19:39:17.961Z,11.87
2022-12-04T19:41:47.303Z,10.73
2022-12-04T19:44:46.928Z,10.53
2022-12-04T19:47:02.265Z,10.93
2022-12-04T19:49:29.341Z,11.40
2022-12-04T19:51:56.057Z,10.30
2022-12-04T19:54:24.227Z,10.10
2022-12-04T19:56:52.533Z,9.57
2022-12-04T19:59:20.372Z,9.67
2022-12-04T20:01:48.234Z,10.57
2022-12-04T20:04:16.140Z,9.70
2022-12-04T20:06:45.837Z,10.27
2022-12-04T20:09:16.349Z,11.00
2022-12-04T20:11:43.202Z,9.97
2022-12-04T20:14:10.561Z,10.57
2022-12-04T20:16:38.038Z,10.27
2022-12-04T20:19:07.061Z,13.97
2022-12-04T20:21:34.105Z,10.67
2022-12-04T20:24:05.385Z,10.10
2022-12-04T20:26:35.674Z,10.50
2022-12-04T20:29:03.419Z,9.60
2022-12-04T20:31:35.847Z,10.27
2022-12-04T20:34:05.503Z,10.03
2022-12-04T20:36:37.261Z,10.90
2022-12-04T20:39:05.431Z,11.80
2022-12-04T20:41:34.692Z,11.53
2022-12-04T20:44:04.825Z,11.50
2022-12-04T20:46:35.325Z,11.23
2022-12-04T20:49:06.710Z,11.10
2022-12-04T20:51:39.010Z,11.03
2022-12-04T20:54:07.282Z,9.77
2022-12-04T20:56:37.065Z,10.50
2022-12-04T20:59:07.667Z,11.57
2022-12-04T21:01:35.974Z,11.30
2022-12-04T21:04:04.158Z,10.23
2022-12-04T21:06:37.029Z,9.83
2022-12-04T21:09:08.042Z,10.77
2022-12-04T21:11:37.065Z,11.47
2022-12-04T21:14:26.991Z,11.20
2022-12-04T21:16:53.728Z,11.27
2022-12-04T21:19:22.197Z,11.37
2022-12-04T21:21:50.092Z,10.77
2022-12-04T21:24:19.187Z,10.73
2022-12-04T21:26:47.722Z,11.60
2022-12-04T21:29:15.855Z,11.37
2022-12-04T21:31:44.551Z,11.33
2022-12-04T21:34:14.133Z,11.00
2022-12-04T21:36:41.307Z,9.77
2022-12-04T21:39:08.123Z,10.43
2022-12-04T21:41:53.604Z,11.67
2022-12-04T21:44:21.685Z,11.23
2022-12-04T21:46:50.119Z,11.00
2022-12-04T21:49:19.170Z,11.40
2022-12-04T21:52:02.334Z,10.73
2022-12-04T21:54:29.771Z,10.07
2022-12-04T21:56:57.613Z,11.67
2022-12-04T21:59:25.821Z,9.77
2022-12-04T22:01:53.034Z,10.80
2022-12-04T22:04:20.201Z,9.80
2022-12-04T22:06:48.173Z,11.27
2022-12-04T22:09:14.846Z,12.57
2022-12-04T22:11:42.403Z,12.67
2022-12-04T22:14:10.438Z,10.17
2022-12-04T22:16:41.993Z,10.10
2022-12-04T22:19:11.503Z,9.97
2022-12-04T22:21:38.886Z,9.17
2022-12-04T22:24:06.607Z,10.43
2022-12-04T22:26:33.831Z,10.50
2022-12-04T22:29:00.951Z,9.60
2022-12-04T22:31:29.528Z,10.07
2022-12-04T22:33:58.829Z,10.63
2022-12-04T22:36:28.971Z,10.07
2022-12-04T22:39:11.450Z,10.17
2022-12-04T22:41:38.634Z,9.97
2022-12-04T22:44:06.340Z,10.10
2022-12-04T22:46:34.376Z,10.00
2022-12-04T22:49:01.150Z,9.37
2022-12-04T22:51:28.349Z,9.13
2022-12-04T22:53:57.357Z,9.80
2022-12-04T22:56:25.609Z,9.83
2022-12-04T22:58:53.480Z,9.37
2022-12-04T23:01:29.071Z,9.30
2022-12-04T23:03:56.754Z,10.87
2022-12-04T23:06:26.988Z,10.83
2022-12-04T23:08:59.036Z,10.83
2022-12-04T23:11:26.988Z,10.47
2022-12-04T23:14:00.294Z,10.20
2022-12-04T23:16:29.415Z,23.50
2022-12-04T23:18:57.058Z,12.93
2022-12-04T23:21:24.577Z,9.60
2022-12-04T23:23:53.490Z,9.33
2022-12-04T23:26:23.721Z,10.20
2022-12-04T23:28:50.843Z,13.20
2022-12-04T23:31:19.118Z,8.93
2022-12-04T23:33:46.091Z,11.80
2022-12-04T23:36:13.763Z,9.70
2022-12-04T23:38:42.164Z,9.60
2022-12-04T23:41:20.408Z,11.37
2022-12-04T23:43:49.222Z,9.93
2022-12-04T23:46:19.774Z,9.47
2022-12-04T23:48:46.988Z,8.47
2022-12-04T23:51:16.424Z,9.40
2022-12-04T23:53:43.142Z,9.53
2022-12-04T23:56:14.735Z,9.73
2022-12-04T23:58:43.315Z,8.70
